Terminal Aerodrome Forecast
Issued by NWS Burlington, VT

Home | Current Version | Previous Version | Text Only | Print | Product List | Glossary On
Versions: 1 2 3 4 5 6 7 8 9 10
000
FTUS41 KBTV 282320
TAFBTV
TAF
KBTV 282320Z 0100/0124 VRB03KT P6SM SKC
     FM011000 17008G14KT P6SM BKN150
     FM011600 17010G20KT P6SM OVC070
     FM011900 17010G20KT 3SM -SHSN BR BKN025 OVC060=

USA.gov is the U.S. government's official web portal to all federal, state and local government web resources and services.